createdAt,value
2019-03-10T00:00:57.632Z,82.30
2019-03-10T00:03:45.569Z,82.60
2019-03-10T00:06:33.502Z,83.20
2019-03-10T00:09:21.229Z,83.40
2019-03-10T00:12:09.044Z,83.40
2019-03-10T00:14:56.670Z,83.80
2019-03-10T00:17:44.420Z,84.10
2019-03-10T00:20:32.540Z,84.00
2019-03-10T00:23:20.126Z,84.20
2019-03-10T00:26:09.436Z,84.50
2019-03-10T00:28:57.616Z,84.80
2019-03-10T00:31:45.409Z,84.70
2019-03-10T00:34:33.577Z,84.80
2019-03-10T00:37:21.424Z,85.00
2019-03-10T00:40:46.842Z,84.90
2019-03-10T00:44:34.293Z,84.80
2019-03-10T00:48:02.760Z,84.40
2019-03-10T00:51:39.847Z,84.40
2019-03-10T00:54:27.644Z,84.50
2019-03-10T00:57:15.682Z,84.20
2019-03-10T01:00:04.667Z,84.10
2019-03-10T01:02:52.715Z,83.90
2019-03-10T01:05:40.657Z,84.10
2019-03-10T01:08:28.643Z,83.90
2019-03-10T01:11:16.637Z,84.10
2019-03-10T01:14:04.481Z,84.00
2019-03-10T01:16:52.111Z,84.20
2019-03-10T01:19:40.226Z,84.30
2019-03-10T01:22:28.188Z,84.40
2019-03-10T01:25:16.011Z,84.70
2019-03-10T01:28:03.464Z,84.80
2019-03-10T01:31:23.989Z,85.40
2019-03-10T01:34:54.911Z,84.80
2019-03-10T01:37:42.606Z,85.30
2019-03-10T01:40:30.532Z,85.20
2019-03-10T01:43:18.508Z,85.00
2019-03-10T01:46:06.636Z,85.40
2019-03-10T01:48:54.053Z,85.30
2019-03-10T01:51:42.272Z,85.40
2019-03-10T01:54:30.241Z,85.30
2019-03-10T01:57:17.887Z,85.10
2019-03-10T02:00:06.067Z,84.70
2019-03-10T02:02:53.544Z,84.70
2019-03-10T02:05:41.208Z,84.40
2019-03-10T02:08:28.603Z,84.00
2019-03-10T02:11:16.401Z,83.90
2019-03-10T02:14:04.378Z,83.50
2019-03-10T02:16:52.405Z,83.20
2019-03-10T02:19:39.920Z,83.20
2019-03-10T02:22:27.823Z,82.70
2019-03-10T02:25:15.911Z,82.70
2019-03-10T02:28:04.018Z,82.90
2019-03-10T02:30:51.443Z,83.00
2019-03-10T02:33:39.188Z,83.20
2019-03-10T02:36:27.059Z,83.00
2019-03-10T02:39:14.847Z,81.40
2019-03-10T02:42:02.492Z,80.10
2019-03-10T02:44:50.065Z,79.10
2019-03-10T02:47:38.134Z,75.40
2019-03-10T02:50:26.341Z,73.60
2019-03-10T02:53:14.016Z,72.10
2019-03-10T02:56:01.608Z,72.70
2019-03-10T02:58:49.184Z,72.30
2019-03-10T03:01:37.038Z,71.90
2019-03-10T03:04:24.806Z,72.80
2019-03-10T03:07:12.644Z,72.60
2019-03-10T03:10:00.362Z,77.90
2019-03-10T03:12:48.088Z,87.00
2019-03-10T03:15:35.973Z,88.20
2019-03-10T03:18:23.225Z,89.70
2019-03-10T03:21:10.790Z,90.30
2019-03-10T03:23:58.479Z,90.30
2019-03-10T03:26:46.436Z,90.60
2019-03-10T03:29:33.746Z,90.60
2019-03-10T03:32:21.305Z,91.20
2019-03-10T03:35:45.804Z,91.70
2019-03-10T03:38:49.553Z,90.40
2019-03-10T03:41:37.269Z,88.10
2019-03-10T03:44:24.761Z,88.80
2019-03-10T03:47:12.877Z,88.90
2019-03-10T03:50:00.606Z,90.00
2019-03-10T03:52:48.486Z,90.50
2019-03-10T03:55:36.281Z,90.90
2019-03-10T03:58:24.125Z,91.00
2019-03-10T04:01:18.521Z,91.30
2019-03-10T04:04:05.857Z,91.60
2019-03-10T04:06:53.357Z,91.80
2019-03-10T04:09:41.410Z,91.80
2019-03-10T04:12:29.057Z,91.60
2019-03-10T04:15:16.767Z,91.60
2019-03-10T04:18:05.025Z,91.70
2019-03-10T04:20:53.025Z,91.60
2019-03-10T04:23:40.885Z,91.70
2019-03-10T04:26:29.594Z,92.00
2019-03-10T04:29:17.549Z,92.30
2019-03-10T04:32:05.457Z,92.60
2019-03-10T04:34:53.731Z,92.70
2019-03-10T04:37:41.493Z,92.90
2019-03-10T04:40:30.079Z,93.10
2019-03-10T04:43:17.758Z,93.10
2019-03-10T04:46:05.590Z,92.90
2019-03-10T04:48:53.725Z,92.70
2019-03-10T04:51:41.298Z,92.10
2019-03-10T04:54:46.914Z,92.10
2019-03-10T04:57:34.563Z,92.10
2019-03-10T05:00:22.380Z,92.10
2019-03-10T05:03:10.230Z,92.50
2019-03-10T05:05:57.955Z,91.90
2019-03-10T05:08:45.184Z,91.80
2019-03-10T05:11:33.145Z,91.80
2019-03-10T05:14:21.133Z,92.20
2019-03-10T05:17:08.554Z,92.10
2019-03-10T05:19:56.417Z,92.30
2019-03-10T05:22:44.060Z,92.20
2019-03-10T05:25:31.361Z,92.40
2019-03-10T05:28:18.986Z,92.10
2019-03-10T05:31:06.713Z,92.70
2019-03-10T05:33:54.844Z,93.00
2019-03-10T05:36:42.985Z,93.50
2019-03-10T05:39:30.721Z,93.50
2019-03-10T05:42:18.481Z,93.80
2019-03-10T05:45:06.204Z,94.10
2019-03-10T05:47:53.886Z,94.40
2019-03-10T05:50:41.129Z,94.80
2019-03-10T05:53:29.181Z,95.00
2019-03-10T05:56:16.905Z,95.30
2019-03-10T05:59:05.269Z,95.90
2019-03-10T06:01:52.701Z,96.10
2019-03-10T06:04:40.128Z,96.40
2019-03-10T06:07:27.738Z,96.70
2019-03-10T06:10:15.676Z,96.90
2019-03-10T06:13:03.577Z,97.00
2019-03-10T06:15:51.204Z,97.40
2019-03-10T06:18:38.983Z,97.80
2019-03-10T06:21:26.620Z,97.90
2019-03-10T06:24:14.929Z,97.90
2019-03-10T06:27:02.488Z,97.80
2019-03-10T06:29:50.691Z,97.90
2019-03-10T06:32:38.384Z,97.70
2019-03-10T06:35:26.232Z,98.30
2019-03-10T06:38:13.997Z,98.20
2019-03-10T06:41:02.008Z,98.30
2019-03-10T06:43:49.609Z,98.50
2019-03-10T06:46:37.531Z,98.30
2019-03-10T06:49:25.064Z,98.80
2019-03-10T06:52:12.616Z,98.70
2019-03-10T06:55:00.445Z,98.70
2019-03-10T06:57:48.464Z,98.70
2019-03-10T07:00:36.019Z,98.80
2019-03-10T07:03:23.412Z,99.00
2019-03-10T07:06:11.018Z,98.80
2019-03-10T07:08:58.686Z,98.30
2019-03-10T07:11:46.091Z,98.40
2019-03-10T07:14:34.021Z,97.90
2019-03-10T07:17:21.918Z,97.70
2019-03-10T07:20:12.565Z,98.20
2019-03-10T07:23:00.275Z,98.20
2019-03-10T07:26:04.887Z,98.10
2019-03-10T07:29:10.285Z,97.50
2019-03-10T07:32:08.850Z,97.90
2019-03-10T07:35:13.921Z,97.20
2019-03-10T07:38:23.382Z,97.90
2019-03-10T07:41:33.629Z,98.30
2019-03-10T07:44:26.721Z,98.40
2019-03-10T07:47:24.126Z,97.90
2019-03-10T07:50:34.693Z,98.20
2019-03-10T07:53:40.871Z,98.00
2019-03-10T07:56:42.461Z,98.60
2019-03-10T07:59:52.741Z,98.60
2019-03-10T08:02:56.025Z,97.80
2019-03-10T08:06:02.800Z,98.20
2019-03-10T08:09:08.205Z,98.10
2019-03-10T08:12:02.946Z,97.20
2019-03-10T08:15:13.920Z,96.90
2019-03-10T08:18:21.126Z,96.50
2019-03-10T08:21:26.958Z,96.30
2019-03-10T08:24:23.922Z,96.00
2019-03-10T08:27:37.089Z,95.60
2019-03-10T08:30:42.657Z,95.60
2019-03-10T08:33:49.480Z,95.10
2019-03-10T08:36:46.846Z,95.10
2019-03-10T08:39:44.921Z,94.60
2019-03-10T08:42:39.914Z,94.50
2019-03-10T08:45:45.676Z,94.20
2019-03-10T08:48:40.674Z,94.00
2019-03-10T08:51:41.501Z,93.70
2019-03-10T08:54:33.246Z,92.90
2019-03-10T08:57:39.460Z,92.90
2019-03-10T09:00:35.039Z,92.70
2019-03-10T09:03:34.106Z,91.90
2019-03-10T09:06:49.756Z,90.50
2019-03-10T09:09:59.708Z,89.50
2019-03-10T09:13:07.245Z,89.40
2019-03-10T09:16:24.056Z,88.70
2019-03-10T09:19:22.234Z,88.40
2019-03-10T09:22:28.852Z,88.20
2019-03-10T09:25:35.191Z,87.70
2019-03-10T09:28:44.953Z,87.30
2019-03-10T09:31:43.626Z,88.80
2019-03-10T09:35:08.786Z,88.00
2019-03-10T09:38:14.221Z,89.00
2019-03-10T09:41:11.584Z,90.20
2019-03-10T09:44:11.979Z,91.00
2019-03-10T09:47:11.477Z,92.00
2019-03-10T09:50:10.057Z,92.60
2019-03-10T09:53:35.273Z,92.70
2019-03-10T09:56:50.595Z,93.50
2019-03-10T09:59:50.209Z,93.90
2019-03-10T10:02:59.798Z,94.10
2019-03-10T10:05:59.825Z,94.40
2019-03-10T10:09:00.885Z,95.20
2019-03-10T10:12:13.437Z,95.40
2019-03-10T10:15:17.674Z,95.70
2019-03-10T10:18:18.145Z,95.70
2019-03-10T10:21:15.796Z,96.30
2019-03-10T10:24:15.914Z,96.70
2019-03-10T10:27:14.002Z,96.80
2019-03-10T10:30:26.827Z,97.40
2019-03-10T10:33:31.269Z,97.30
2019-03-10T10:36:38.023Z,97.40
2019-03-10T10:39:44.587Z,97.60
2019-03-10T10:42:50.141Z,98.00
2019-03-10T10:45:55.732Z,98.00
2019-03-10T10:48:50.147Z,98.30
2019-03-10T10:52:04.080Z,98.50
2019-03-10T10:55:09.941Z,98.10
2019-03-10T10:58:20.011Z,98.90
2019-03-10T11:01:29.921Z,99.00
2019-03-10T11:04:23.744Z,99.50
2019-03-10T11:07:26.665Z,99.60
2019-03-10T11:10:23.601Z,99.60
2019-03-10T11:13:36.765Z,99.90
2019-03-10T11:17:02.362Z,99.70
2019-03-10T11:20:11.163Z,99.80
2019-03-10T11:23:12.132Z,99.80
2019-03-10T11:26:08.364Z,99.80
2019-03-10T11:29:10.829Z,99.50
2019-03-10T11:32:33.146Z,99.00
2019-03-10T11:35:42.811Z,98.60
2019-03-10T11:38:40.809Z,98.70
2019-03-10T11:41:39.271Z,98.70
2019-03-10T11:44:45.152Z,98.80
2019-03-10T11:47:42.276Z,98.70
2019-03-10T11:50:51.780Z,98.80
2019-03-10T11:53:45.393Z,97.80
2019-03-10T11:56:55.195Z,97.00
2019-03-10T11:59:51.789Z,96.20
2019-03-10T12:02:57.305Z,95.70
2019-03-10T12:06:07.871Z,95.20
2019-03-10T12:09:02.605Z,95.70
2019-03-10T12:11:50.768Z,95.20
2019-03-10T12:14:41.316Z,94.70
2019-03-10T12:17:28.648Z,92.60
2019-03-10T12:20:16.545Z,90.90
2019-03-10T12:23:04.640Z,90.20
2019-03-10T12:25:52.305Z,90.10
2019-03-10T12:28:41.559Z,89.70
2019-03-10T12:31:29.045Z,89.60
2019-03-10T12:34:16.868Z,88.30
2019-03-10T12:37:04.555Z,87.30
2019-03-10T12:39:51.885Z,88.30
2019-03-10T12:42:39.257Z,88.20
2019-03-10T12:45:27.201Z,88.10
2019-03-10T12:48:14.748Z,88.50
2019-03-10T12:51:02.633Z,86.40
2019-03-10T12:53:50.633Z,88.20
2019-03-10T12:56:40.546Z,88.80
2019-03-10T12:59:27.848Z,87.60
2019-03-10T13:02:15.485Z,88.20
2019-03-10T13:05:03.096Z,89.40
2019-03-10T13:07:50.893Z,88.30
2019-03-10T13:10:38.888Z,87.50
2019-03-10T13:13:26.732Z,89.20
2019-03-10T13:16:14.348Z,87.90
2019-03-10T13:19:02.216Z,88.00
2019-03-10T13:21:50.141Z,88.60
2019-03-10T13:24:37.600Z,88.90
2019-03-10T13:27:25.512Z,89.20
2019-03-10T13:30:13.537Z,88.30
2019-03-10T13:33:01.357Z,88.20
2019-03-10T13:35:48.596Z,88.80
2019-03-10T13:38:36.148Z,90.00
2019-03-10T13:41:24.460Z,89.40
2019-03-10T13:44:12.167Z,89.20
2019-03-10T13:46:59.519Z,90.00
2019-03-10T13:49:46.837Z,89.90
2019-03-10T13:52:34.603Z,88.70
2019-03-10T13:55:21.987Z,87.90
2019-03-10T13:58:09.984Z,88.20
2019-03-10T14:00:58.016Z,86.00
2019-03-10T14:03:45.478Z,85.10
2019-03-10T14:06:32.976Z,84.10
2019-03-10T14:09:20.330Z,84.00
2019-03-10T14:12:08.185Z,83.10
2019-03-10T14:14:55.703Z,83.00
2019-03-10T14:17:43.381Z,81.40
2019-03-10T14:20:31.589Z,79.90
2019-03-10T14:23:19.385Z,81.00
2019-03-10T14:26:07.421Z,78.70
2019-03-10T14:28:54.877Z,77.20
2019-03-10T14:31:42.611Z,75.80
2019-03-10T14:34:30.431Z,75.80
2019-03-10T14:37:17.968Z,74.00
2019-03-10T14:40:06.747Z,73.50
2019-03-10T14:42:55.125Z,71.90
2019-03-10T14:45:42.849Z,71.40
2019-03-10T14:48:30.421Z,69.20
2019-03-10T14:51:18.261Z,69.10
2019-03-10T14:54:06.209Z,67.80
2019-03-10T14:56:53.441Z,68.30
2019-03-10T14:59:42.847Z,66.70
2019-03-10T15:02:30.859Z,64.40
2019-03-10T15:05:18.967Z,61.90
2019-03-10T15:08:06.452Z,61.30
2019-03-10T15:10:53.768Z,61.80
2019-03-10T15:13:41.609Z,63.20
2019-03-10T15:16:29.854Z,63.20
2019-03-10T15:19:17.429Z,64.30
2019-03-10T15:22:05.085Z,63.50
2019-03-10T15:24:52.701Z,65.20
2019-03-10T15:27:40.785Z,66.70
2019-03-10T15:30:28.166Z,68.90
2019-03-10T15:33:16.200Z,76.80
2019-03-10T15:36:03.918Z,83.30
2019-03-10T15:38:51.953Z,88.60
2019-03-10T15:41:40.136Z,91.10
2019-03-10T15:44:27.753Z,92.10
2019-03-10T15:47:15.067Z,92.30
2019-03-10T15:50:02.672Z,92.20
2019-03-10T15:52:50.492Z,92.00
2019-03-10T15:55:38.245Z,91.70
2019-03-10T15:58:26.017Z,92.10
2019-03-10T16:01:13.961Z,92.10
2019-03-10T16:04:22.912Z,93.00
2019-03-10T16:07:10.790Z,93.40
2019-03-10T16:09:58.610Z,94.00
2019-03-10T16:12:46.545Z,94.60
2019-03-10T16:15:34.350Z,95.10
2019-03-10T16:18:22.042Z,96.40
2019-03-10T16:21:09.679Z,96.60
2019-03-10T16:23:57.156Z,96.60
2019-03-10T16:26:45.093Z,96.20
2019-03-10T16:29:32.929Z,95.30
2019-03-10T16:32:20.601Z,95.90
2019-03-10T16:35:08.874Z,96.50
2019-03-10T16:37:56.779Z,96.30
2019-03-10T16:40:44.696Z,95.90
2019-03-10T16:43:33.933Z,95.40
2019-03-10T16:46:21.264Z,95.10
2019-03-10T16:49:08.838Z,94.90
2019-03-10T16:51:56.234Z,94.90
2019-03-10T16:54:43.762Z,95.40
2019-03-10T16:57:31.469Z,95.70
2019-03-10T17:00:20.894Z,95.90
2019-03-10T17:03:08.964Z,96.30
2019-03-10T17:05:56.384Z,96.10
2019-03-10T17:08:44.110Z,96.10
2019-03-10T17:11:32.014Z,96.10
2019-03-10T17:14:19.712Z,96.00
2019-03-10T17:17:07.761Z,95.80
2019-03-10T17:19:55.920Z,95.80
2019-03-10T17:22:43.662Z,95.10
2019-03-10T17:25:31.330Z,94.50
2019-03-10T17:28:19.422Z,93.90
2019-03-10T17:31:07.649Z,94.00
2019-03-10T17:33:55.077Z,94.00
2019-03-10T17:36:42.700Z,94.50
2019-03-10T17:39:30.057Z,94.50
2019-03-10T17:42:17.838Z,94.60
2019-03-10T17:45:06.420Z,94.30
2019-03-10T17:47:54.361Z,94.30
2019-03-10T17:50:41.685Z,94.10
2019-03-10T17:53:29.831Z,94.80
2019-03-10T17:56:17.847Z,95.00
2019-03-10T17:59:05.494Z,95.30
2019-03-10T18:01:53.204Z,95.20
2019-03-10T18:04:40.900Z,95.20
2019-03-10T18:07:28.403Z,95.20
2019-03-10T18:10:16.096Z,94.40
2019-03-10T18:13:04.136Z,94.40
2019-03-10T18:15:51.971Z,94.40
2019-03-10T18:18:39.640Z,94.70
2019-03-10T18:21:27.756Z,94.60
2019-03-10T18:24:15.740Z,94.90
2019-03-10T18:27:03.517Z,95.00
2019-03-10T18:29:51.178Z,95.70
2019-03-10T18:32:38.790Z,96.20
2019-03-10T18:35:26.626Z,96.40
2019-03-10T18:38:14.548Z,96.20
2019-03-10T18:41:02.416Z,96.60
2019-03-10T18:43:50.154Z,96.20
2019-03-10T18:46:38.086Z,96.20
2019-03-10T18:49:25.934Z,96.10
2019-03-10T18:52:13.504Z,96.20
2019-03-10T18:55:01.654Z,95.80
2019-03-10T18:57:49.757Z,95.60
2019-03-10T19:00:37.517Z,95.30
2019-03-10T19:03:25.093Z,95.10
2019-03-10T19:06:13.168Z,94.70
2019-03-10T19:09:00.747Z,94.50
2019-03-10T19:11:48.485Z,93.70
2019-03-10T19:14:36.129Z,93.40
2019-03-10T19:17:23.937Z,93.20
2019-03-10T19:20:12.429Z,93.40
2019-03-10T19:23:00.027Z,93.10
2019-03-10T19:25:47.972Z,92.80
2019-03-10T19:28:35.954Z,93.10
2019-03-10T19:31:23.682Z,93.30
2019-03-10T19:34:11.608Z,93.60
2019-03-10T19:36:59.524Z,93.20
2019-03-10T19:39:51.402Z,92.60
2019-03-10T19:42:40.478Z,92.80
2019-03-10T19:45:28.536Z,93.10
2019-03-10T19:48:16.546Z,93.90
2019-03-10T19:51:04.017Z,94.20
2019-03-10T19:53:51.408Z,94.50
2019-03-10T19:56:39.658Z,94.30
2019-03-10T19:59:27.383Z,94.30
2019-03-10T20:02:15.229Z,94.40
2019-03-10T20:05:02.974Z,94.40
2019-03-10T20:07:50.322Z,94.30
2019-03-10T20:10:37.741Z,94.10
2019-03-10T20:13:25.688Z,94.10
2019-03-10T20:16:13.357Z,94.20
2019-03-10T20:19:01.324Z,94.40
2019-03-10T20:21:48.975Z,94.70
2019-03-10T20:24:37.027Z,94.60
2019-03-10T20:27:24.989Z,94.60
2019-03-10T20:30:15.082Z,94.60
2019-03-10T20:33:02.803Z,94.50
2019-03-10T20:35:50.155Z,94.20
2019-03-10T20:38:39.162Z,93.50
2019-03-10T20:41:26.989Z,93.10
2019-03-10T20:44:14.317Z,93.00
2019-03-10T20:47:01.729Z,92.30
2019-03-10T20:49:49.928Z,92.10
2019-03-10T20:52:38.083Z,92.10
2019-03-10T20:55:25.929Z,92.00
2019-03-10T20:58:13.743Z,91.70
2019-03-10T21:01:01.581Z,91.30
2019-03-10T21:03:49.061Z,91.40
2019-03-10T21:06:36.681Z,91.20
2019-03-10T21:09:24.390Z,91.20
2019-03-10T21:12:12.155Z,91.20
2019-03-10T21:14:59.560Z,91.20
2019-03-10T21:17:47.116Z,91.20
2019-03-10T21:20:34.913Z,91.00
2019-03-10T21:23:23.173Z,91.10
2019-03-10T21:26:10.858Z,90.90
2019-03-10T21:28:58.829Z,91.00
2019-03-10T21:31:46.153Z,91.00
2019-03-10T21:34:33.977Z,91.00
2019-03-10T21:37:21.566Z,91.30
2019-03-10T21:40:10.788Z,91.10
2019-03-10T21:42:58.478Z,91.20
2019-03-10T21:45:46.631Z,91.20
2019-03-10T21:48:34.199Z,91.20
2019-03-10T21:51:21.797Z,90.80
2019-03-10T21:54:09.702Z,90.80
2019-03-10T21:56:57.353Z,90.90
2019-03-10T21:59:45.100Z,90.70
2019-03-10T22:02:32.530Z,90.70
2019-03-10T22:05:20.316Z,90.70
2019-03-10T22:08:08.253Z,90.60
2019-03-10T22:10:56.353Z,90.70
2019-03-10T22:13:47.530Z,90.40
2019-03-10T22:16:35.507Z,90.40
2019-03-10T22:19:23.717Z,90.30
2019-03-10T22:22:11.548Z,90.20
2019-03-10T22:24:59.534Z,90.40
2019-03-10T22:27:47.181Z,90.60
2019-03-10T22:30:35.169Z,91.70
2019-03-10T22:33:23.800Z,91.70
2019-03-10T22:36:12.009Z,91.60
2019-03-10T22:39:03.293Z,91.60
2019-03-10T22:41:57.260Z,91.10
2019-03-10T22:44:46.550Z,90.00
2019-03-10T22:47:34.841Z,88.10
2019-03-10T22:50:23.320Z,88.00
2019-03-10T22:53:11.047Z,84.40
2019-03-10T22:55:58.872Z,84.10
2019-03-10T22:58:50.642Z,83.20
2019-03-10T23:01:38.695Z,82.60
2019-03-10T23:04:26.737Z,82.20
2019-03-10T23:07:14.428Z,81.90
2019-03-10T23:10:02.213Z,81.60
2019-03-10T23:12:49.908Z,82.00
2019-03-10T23:15:38.146Z,79.80
2019-03-10T23:18:26.240Z,80.90
2019-03-10T23:21:14.213Z,80.60
2019-03-10T23:24:08.141Z,82.10
2019-03-10T23:26:56.097Z,81.70
2019-03-10T23:29:44.079Z,81.80
2019-03-10T23:32:40.947Z,82.80
2019-03-10T23:35:28.688Z,81.80
2019-03-10T23:38:16.900Z,82.40
2019-03-10T23:41:05.104Z,82.50
2019-03-10T23:43:54.175Z,83.00
2019-03-10T23:46:41.816Z,83.60
2019-03-10T23:49:29.844Z,84.70
2019-03-10T23:52:17.266Z,83.30
2019-03-10T23:55:05.714Z,82.90
2019-03-10T23:57:53.895Z,83.50
